Time;durP1;ratioP1;P1;durP2;ratioP2;P2;SDS_P1;SDS_P2;PMS_P1;PMS_P2;Temp;Humidity;BMP_temperature;BMP_pressure;BME280_temperature;BME280_humidity;BME280_pressure;Samples;Min_cycle;Max_cycle;Signal;HPM_P1;HPM_P2
2021/09/25 00:00:58;;;;;;;9.57;3.13;;;;;;;;;;5068449;28;20536;-70
2021/09/25 00:03:24;;;;;;;8.68;3.88;;;;;;;;;;5071281;28;20036;-70
2021/09/25 00:05:50;;;;;;;8.63;3.33;;;;;;;;;;5071997;28;20040;-70
2021/09/25 00:08:16;;;;;;;8.32;3.40;;;;;;;;;;5066886;28;20037;-70
2021/09/25 00:10:43;;;;;;;6.72;3.20;;;;;;;;;;5070792;28;20068;-70
2021/09/25 00:13:09;;;;;;;8.95;3.13;;;;;;;;;;5064752;28;20129;-70
2021/09/25 00:15:35;;;;;;;8.65;2.75;;;;;;;;;;5069860;28;20048;-70
2021/09/25 00:18:02;;;;;;;10.82;3.67;;;;;;;;;;5075500;28;20561;-70
2021/09/25 00:20:28;;;;;;;9.10;3.00;;;;;;;;;;5074436;28;20459;-70
2021/09/25 00:22:54;;;;;;;8.95;3.22;;;;;;;;;;5071089;28;20110;-70
2021/09/25 00:25:21;;;;;;;6.93;2.47;;;;;;;;;;5065253;28;21714;-70
2021/09/25 00:27:47;;;;;;;9.80;2.90;;;;;;;;;;5068091;28;20040;-70
2021/09/25 00:30:14;;;;;;;6.43;2.45;;;;;;;;;;5071064;28;20039;-70
2021/09/25 00:32:40;;;;;;;10.35;2.65;;;;;;;;;;5079564;28;20043;-70
2021/09/25 00:35:07;;;;;;;8.40;2.65;;;;;;;;;;5066946;28;20124;-70
2021/09/25 00:37:33;;;;;;;7.80;2.53;;;;;;;;;;5066426;28;20097;-70
2021/09/25 00:39:59;;;;;;;8.65;2.72;;;;;;;;;;5076548;28;20031;-70
2021/09/25 00:42:26;;;;;;;8.13;2.50;;;;;;;;;;5079887;28;20109;-70
2021/09/25 00:44:52;;;;;;;8.15;2.70;;;;;;;;;;5071064;28;20076;-71
2021/09/25 00:47:18;;;;;;;8.73;3.08;;;;;;;;;;5076242;28;20174;-70
2021/09/25 00:49:44;;;;;;;13.02;2.83;;;;;;;;;;5075006;28;20083;-70
2021/09/25 00:52:10;;;;;;;9.15;2.60;;;;;;;;;;5076865;28;20135;-70
2021/09/25 00:54:36;;;;;;;7.22;2.95;;;;;;;;;;5076261;28;20043;-70
2021/09/25 00:57:02;;;;;;;8.48;2.60;;;;;;;;;;5079379;28;20048;-69
2021/09/25 00:59:29;;;;;;;8.65;2.67;;;;;;;;;;5078608;28;20072;-70
2021/09/25 01:01:55;;;;;;;7.80;2.22;;;;;;;;;;5073065;28;20051;-70
2021/09/25 01:04:21;;;;;;;11.13;2.80;;;;;;;;;;5073589;28;20036;-70
2021/09/25 01:06:47;;;;;;;13.45;3.15;;;;;;;;;;5072729;28;20037;-70
2021/09/25 01:09:14;;;;;;;10.02;2.80;;;;;;;;;;5074052;28;20040;-70
2021/09/25 01:11:40;;;;;;;8.05;2.60;;;;;;;;;;5055885;28;20039;-70
2021/09/25 01:14:06;;;;;;;9.57;2.40;;;;;;;;;;5059008;28;20048;-70
2021/09/25 01:16:33;;;;;;;8.60;2.67;;;;;;;;;;5067964;28;20350;-70
2021/09/25 01:18:59;;;;;;;11.73;2.70;;;;;;;;;;5077663;28;20080;-70
2021/09/25 01:21:25;;;;;;;11.05;2.58;;;;;;;;;;5074710;28;20059;-70
2021/09/25 01:23:52;;;;;;;10.82;2.60;;;;;;;;;;5076708;28;20047;-70
2021/09/25 01:26:20;;;;;;;10.23;2.83;;;;;;;;;;5079256;28;20428;-70
2021/09/25 01:28:46;;;;;;;8.05;2.58;;;;;;;;;;5072520;28;20127;-70
2021/09/25 01:31:13;;;;;;;10.07;2.90;;;;;;;;;;5064946;28;20373;-70
2021/09/25 01:33:42;;;;;;;12.43;3.28;;;;;;;;;;5071648;28;20037;-70
2021/09/25 01:36:08;;;;;;;10.70;2.65;;;;;;;;;;5072204;28;20118;-70
2021/09/25 01:38:34;;;;;;;9.57;2.97;;;;;;;;;;5074789;28;20037;-70
2021/09/25 01:41:01;;;;;;;9.13;2.80;;;;;;;;;;5070945;28;20040;-70
2021/09/25 01:43:29;;;;;;;11.00;2.70;;;;;;;;;;5071155;28;20044;-70
2021/09/25 01:45:55;;;;;;;12.82;2.90;;;;;;;;;;5073194;28;20080;-68
2021/09/25 01:48:21;;;;;;;7.38;2.70;;;;;;;;;;5066817;28;20130;-69
2021/09/25 01:50:48;;;;;;;9.88;3.10;;;;;;;;;;5055926;28;20047;-69
2021/09/25 01:53:14;;;;;;;9.13;2.65;;;;;;;;;;5067583;28;20105;-69
2021/09/25 01:55:40;;;;;;;11.10;3.30;;;;;;;;;;5072155;28;20044;-69
2021/09/25 01:58:06;;;;;;;9.20;2.58;;;;;;;;;;5066552;28;20052;-69
2021/09/25 02:00:34;;;;;;;8.40;2.40;;;;;;;;;;5060443;28;20032;-69
2021/09/25 02:03:01;;;;;;;11.15;2.83;;;;;;;;;;5069382;28;20516;-69
2021/09/25 02:05:27;;;;;;;12.43;2.85;;;;;;;;;;5073587;28;20036;-69
2021/09/25 02:07:53;;;;;;;10.07;3.13;;;;;;;;;;5066435;28;20120;-69
2021/09/25 02:10:19;;;;;;;9.52;2.88;;;;;;;;;;5072432;28;20040;-69
2021/09/25 02:12:46;;;;;;;8.65;2.70;;;;;;;;;;5066279;28;20056;-69
2021/09/25 02:15:12;;;;;;;11.13;2.33;;;;;;;;;;5072502;28;20072;-69
2021/09/25 02:17:38;;;;;;;12.13;2.95;;;;;;;;;;5066524;28;20362;-69
2021/09/25 02:20:05;;;;;;;11.27;3.00;;;;;;;;;;5071877;28;20041;-69
2021/09/25 02:22:32;;;;;;;10.07;3.15;;;;;;;;;;5074495;28;20080;-69
2021/09/25 02:24:58;;;;;;;14.57;2.88;;;;;;;;;;5066007;28;20032;-69
2021/09/25 02:27:24;;;;;;;12.32;3.63;;;;;;;;;;5070638;28;20520;-69
2021/09/25 02:29:50;;;;;;;12.77;3.38;;;;;;;;;;5072606;28;20040;-69
2021/09/25 02:32:16;;;;;;;11.77;3.35;;;;;;;;;;5070884;28;20130;-69
2021/09/25 02:34:42;;;;;;;7.35;2.90;;;;;;;;;;5070076;28;20045;-69
2021/09/25 02:37:08;;;;;;;10.65;3.22;;;;;;;;;;5071878;28;20076;-69
2021/09/25 02:39:35;;;;;;;9.43;3.15;;;;;;;;;;5063653;28;20048;-69
2021/09/25 02:42:01;;;;;;;13.23;3.70;;;;;;;;;;5072472;28;20071;-69
2021/09/25 02:44:27;;;;;;;10.38;2.50;;;;;;;;;;5067196;28;20055;-69
2021/09/25 02:46:54;;;;;;;9.02;3.33;;;;;;;;;;5071357;28;20050;-69
2021/09/25 02:49:21;;;;;;;13.20;3.10;;;;;;;;;;5065591;28;20039;-69
2021/09/25 02:51:47;;;;;;;10.73;3.13;;;;;;;;;;5073075;28;20064;-69
2021/09/25 02:54:13;;;;;;;10.50;3.75;;;;;;;;;;5064776;28;20044;-69
2021/09/25 02:56:39;;;;;;;12.38;3.85;;;;;;;;;;5076748;28;20511;-69
2021/09/25 02:59:06;;;;;;;9.13;3.55;;;;;;;;;;5077450;28;20047;-69
2021/09/25 03:01:32;;;;;;;9.10;3.40;;;;;;;;;;5068834;28;20040;-69
2021/09/25 03:03:59;;;;;;;11.80;3.63;;;;;;;;;;5071274;28;20488;-69
2021/09/25 03:06:26;;;;;;;12.23;3.15;;;;;;;;;;5066445;28;20121;-69
2021/09/25 03:08:52;;;;;;;11.68;4.05;;;;;;;;;;5069677;28;20040;-69
2021/09/25 03:11:18;;;;;;;10.00;3.50;;;;;;;;;;5063766;28;20059;-69
2021/09/25 03:13:45;;;;;;;12.52;3.90;;;;;;;;;;5070440;28;20180;-69
2021/09/25 03:16:11;;;;;;;12.30;3.28;;;;;;;;;;5065010;28;20100;-69
2021/09/25 03:18:37;;;;;;;15.27;4.30;;;;;;;;;;5070884;28;20028;-69
2021/09/25 03:21:03;;;;;;;10.13;4.00;;;;;;;;;;5065281;28;20040;-69
2021/09/25 03:23:29;;;;;;;13.88;4.18;;;;;;;;;;5070391;28;20056;-69
2021/09/25 03:25:55;;;;;;;10.43;4.18;;;;;;;;;;5063959;28;20040;-69
2021/09/25 03:28:21;;;;;;;7.25;3.72;;;;;;;;;;5069920;28;20037;-69
2021/09/25 03:30:47;;;;;;;10.73;3.83;;;;;;;;;;5068919;28;20032;-69
2021/09/25 03:33:13;;;;;;;13.18;4.05;;;;;;;;;;5069545;28;20039;-69
2021/09/25 03:35:46;;;;;;;12.68;4.10;;;;;;;;;;5064048;28;20048;-69
2021/09/25 03:38:12;;;;;;;12.48;4.32;;;;;;;;;;5074815;28;20511;-69
2021/09/25 03:40:38;;;;;;;15.52;4.35;;;;;;;;;;5077221;28;20115;-69
2021/09/25 03:43:07;;;;;;;11.32;4.38;;;;;;;;;;5071425;28;20040;-69
2021/09/25 03:45:33;;;;;;;13.10;4.85;;;;;;;;;;5057709;28;20056;-69
2021/09/25 03:47:59;;;;;;;12.15;4.30;;;;;;;;;;5065705;28;20094;-69
2021/09/25 03:50:26;;;;;;;13.45;4.93;;;;;;;;;;5073492;28;20388;-69
2021/09/25 03:52:52;;;;;;;12.35;4.50;;;;;;;;;;5068192;28;20139;-69
2021/09/25 03:55:18;;;;;;;9.73;4.40;;;;;;;;;;5069745;28;20509;-69
2021/09/25 03:57:44;;;;;;;9.48;4.63;;;;;;;;;;5063577;28;20041;-69
2021/09/25 04:00:10;;;;;;;16.88;5.55;;;;;;;;;;5071912;28;20089;-69
2021/09/25 04:02:37;;;;;;;15.75;5.28;;;;;;;;;;5065078;28;20052;-69
2021/09/25 04:05:03;;;;;;;13.52;5.57;;;;;;;;;;5070743;28;20048;-69
2021/09/25 04:07:29;;;;;;;11.77;5.72;;;;;;;;;;5071392;28;20486;-69
2021/09/25 04:09:55;;;;;;;15.07;5.38;;;;;;;;;;5079558;28;20075;-69
2021/09/25 04:12:21;;;;;;;15.82;5.90;;;;;;;;;;5064559;28;20447;-69
2021/09/25 04:14:47;;;;;;;14.18;5.22;;;;;;;;;;5077527;28;20079;-69
2021/09/25 04:17:13;;;;;;;15.30;5.63;;;;;;;;;;5073705;28;20465;-69
2021/09/25 04:19:39;;;;;;;12.50;5.57;;;;;;;;;;5074031;28;20035;-69
2021/09/25 04:22:05;;;;;;;11.27;5.57;;;;;;;;;;5069042;28;20064;-69
2021/09/25 04:24:31;;;;;;;13.23;5.90;;;;;;;;;;5066923;28;20032;-69
2021/09/25 04:26:57;;;;;;;14.63;5.03;;;;;;;;;;5069968;28;20032;-69
2021/09/25 04:29:23;;;;;;;10.40;5.07;;;;;;;;;;5066844;28;20070;-69
2021/09/25 04:31:49;;;;;;;13.98;5.18;;;;;;;;;;5075985;28;20040;-69
2021/09/25 04:34:15;;;;;;;12.38;5.45;;;;;;;;;;5063916;28;20036;-69
2021/09/25 04:36:42;;;;;;;12.80;5.20;;;;;;;;;;5071773;28;20036;-69
2021/09/25 04:39:08;;;;;;;12.57;5.13;;;;;;;;;;5069968;28;20516;-69
2021/09/25 04:41:34;;;;;;;12.35;5.53;;;;;;;;;;5075151;28;20136;-69
2021/09/25 04:44:00;;;;;;;17.83;5.35;;;;;;;;;;5052441;28;20044;-69
2021/09/25 04:46:26;;;;;;;17.63;6.80;;;;;;;;;;5071445;28;20044;-69
2021/09/25 04:48:52;;;;;;;15.63;5.57;;;;;;;;;;5063732;28;20044;-70
2021/09/25 04:51:19;;;;;;;12.38;5.43;;;;;;;;;;5081907;28;20033;-70
2021/09/25 04:53:45;;;;;;;13.32;5.32;;;;;;;;;;5068867;28;20048;-70
2021/09/25 04:56:12;;;;;;;11.20;5.60;;;;;;;;;;5075232;28;20127;-70
2021/09/25 04:58:38;;;;;;;13.13;5.90;;;;;;;;;;5075688;28;20171;-70
2021/09/25 05:01:07;;;;;;;14.18;5.50;;;;;;;;;;5069577;28;20055;-70
2021/09/25 05:03:33;;;;;;;13.02;5.85;;;;;;;;;;5052413;28;20065;-70
2021/09/25 05:06:01;;;;;;;15.55;6.88;;;;;;;;;;5063362;28;20644;-71
2021/09/25 05:08:27;;;;;;;10.50;6.18;;;;;;;;;;5074642;28;20111;-70
2021/09/25 05:10:53;;;;;;;13.90;6.55;;;;;;;;;;5065213;28;20052;-70
2021/09/25 05:13:19;;;;;;;16.42;6.85;;;;;;;;;;5068695;28;20041;-70
2021/09/25 05:15:45;;;;;;;12.55;6.60;;;;;;;;;;5065764;28;20041;-71
2021/09/25 05:18:11;;;;;;;15.45;6.93;;;;;;;;;;5083228;28;20461;-70
2021/09/25 05:20:37;;;;;;;16.92;7.18;;;;;;;;;;5073260;28;20052;-69
2021/09/25 05:23:03;;;;;;;12.55;6.78;;;;;;;;;;5081552;28;20085;-69
2021/09/25 05:25:29;;;;;;;15.80;7.25;;;;;;;;;;5068011;28;20041;-69
2021/09/25 05:27:55;;;;;;;14.70;6.80;;;;;;;;;;5073105;28;20117;-69
2021/09/25 05:30:22;;;;;;;16.23;7.82;;;;;;;;;;5070282;28;20076;-69
2021/09/25 05:32:48;;;;;;;13.52;6.93;;;;;;;;;;5074218;28;20471;-70
2021/09/25 05:35:14;;;;;;;15.52;7.63;;;;;;;;;;5066564;28;20096;-68
2021/09/25 05:37:40;;;;;;;14.60;7.70;;;;;;;;;;5071591;28;20091;-69
2021/09/25 05:40:07;;;;;;;18.95;7.97;;;;;;;;;;5075143;28;20048;-69
2021/09/25 05:42:33;;;;;;;16.30;7.43;;;;;;;;;;5065689;28;20080;-69
2021/09/25 05:44:59;;;;;;;14.25;7.30;;;;;;;;;;5073455;28;20068;-69
2021/09/25 05:47:26;;;;;;;15.75;7.97;;;;;;;;;;5071280;28;20040;-69
2021/09/25 05:49:52;;;;;;;10.93;7.05;;;;;;;;;;5074412;28;20150;-69
2021/09/25 05:52:19;;;;;;;12.55;7.68;;;;;;;;;;5069148;28;20048;-69
2021/09/25 05:54:45;;;;;;;16.08;7.95;;;;;;;;;;5061591;28;20043;-69
2021/09/25 05:57:12;;;;;;;12.65;7.63;;;;;;;;;;5069244;28;20040;-69
2021/09/25 05:59:38;;;;;;;14.48;8.38;;;;;;;;;;5071216;28;20444;-69
2021/09/25 06:02:04;;;;;;;16.05;7.82;;;;;;;;;;5070848;28;20295;-69
2021/09/25 06:04:32;;;;;;;15.80;9.00;;;;;;;;;;5071638;28;20044;-69
2021/09/25 06:06:58;;;;;;;15.18;8.70;;;;;;;;;;5074292;28;20046;-69
2021/09/25 06:09:24;;;;;;;20.23;10.50;;;;;;;;;;5073940;28;20032;-69
2021/09/25 06:11:51;;;;;;;21.65;8.68;;;;;;;;;;5064638;28;20724;-70
2021/09/25 06:14:18;;;;;;;15.05;8.52;;;;;;;;;;5074988;28;20044;-70
2021/09/25 06:16:44;;;;;;;15.38;8.35;;;;;;;;;;5072881;28;20042;-70
2021/09/25 06:19:12;;;;;;;15.82;8.55;;;;;;;;;;5070392;28;20097;-70
2021/09/25 06:21:38;;;;;;;15.00;8.90;;;;;;;;;;5078920;28;20049;-70
2021/09/25 06:24:04;;;;;;;13.93;8.15;;;;;;;;;;5069393;28;20582;-69
2021/09/25 06:26:30;;;;;;;14.45;9.13;;;;;;;;;;5056373;28;20079;-69
2021/09/25 06:28:56;;;;;;;13.05;9.10;;;;;;;;;;5065705;28;20087;-70
2021/09/25 06:31:22;;;;;;;16.58;9.23;;;;;;;;;;5073267;28;20060;-70
2021/09/25 06:33:48;;;;;;;16.75;9.20;;;;;;;;;;5069142;28;20036;-70
2021/09/25 06:36:14;;;;;;;15.27;8.85;;;;;;;;;;5077713;28;20047;-70
2021/09/25 06:38:40;;;;;;;15.20;9.05;;;;;;;;;;5070268;28;20039;-70
2021/09/25 06:41:07;;;;;;;15.77;9.32;;;;;;;;;;5072338;28;20033;-70
2021/09/25 06:43:33;;;;;;;17.95;9.68;;;;;;;;;;5071399;28;20392;-70
2021/09/25 06:46:00;;;;;;;13.45;9.27;;;;;;;;;;5077654;28;20048;-70
2021/09/25 06:48:26;;;;;;;12.60;8.68;;;;;;;;;;5064999;28;20127;-70
2021/09/25 06:50:52;;;;;;;16.63;9.63;;;;;;;;;;5073549;28;20060;-70
2021/09/25 06:53:18;;;;;;;16.50;9.07;;;;;;;;;;5071545;28;20512;-70
2021/09/25 06:55:44;;;;;;;15.00;9.55;;;;;;;;;;5076005;28;20051;-70
2021/09/25 06:58:10;;;;;;;11.48;8.68;;;;;;;;;;5086112;28;20130;-70
2021/09/25 07:00:36;;;;;;;15.43;8.90;;;;;;;;;;5065356;28;20067;-67
2021/09/25 07:03:02;;;;;;;15.68;9.48;;;;;;;;;;5058252;28;20048;-68
2021/09/25 07:05:28;;;;;;;18.20;9.52;;;;;;;;;;5066864;28;20036;-68
2021/09/25 07:07:54;;;;;;;16.05;9.52;;;;;;;;;;5084229;28;20140;-68
2021/09/25 07:10:20;;;;;;;16.00;9.23;;;;;;;;;;5065913;28;20086;-68
2021/09/25 07:12:47;;;;;;;16.45;10.25;;;;;;;;;;5068705;28;20406;-68
2021/09/25 07:15:13;;;;;;;16.02;9.10;;;;;;;;;;5073040;28;20043;-68
2021/09/25 07:17:39;;;;;;;14.10;9.68;;;;;;;;;;5071694;28;20044;-68
2021/09/25 07:20:06;;;;;;;19.75;10.07;;;;;;;;;;5064636;28;20051;-68
2021/09/25 07:22:33;;;;;;;16.52;10.20;;;;;;;;;;5070299;28;20080;-69
2021/09/25 07:24:59;;;;;;;19.02;9.55;;;;;;;;;;5064846;28;20036;-69
2021/09/25 07:27:25;;;;;;;16.23;9.82;;;;;;;;;;5069494;28;20405;-69
2021/09/25 07:29:52;;;;;;;21.75;10.55;;;;;;;;;;5065613;28;20044;-69
2021/09/25 07:32:19;;;;;;;14.20;9.70;;;;;;;;;;5082766;28;20500;-69
2021/09/25 07:34:45;;;;;;;13.93;9.68;;;;;;;;;;5068692;28;20420;-69
2021/09/25 07:37:11;;;;;;;19.67;10.35;;;;;;;;;;5058841;28;20052;-69
2021/09/25 07:39:38;;;;;;;17.58;10.57;;;;;;;;;;5070322;28;20119;-69
2021/09/25 07:42:04;;;;;;;20.35;10.32;;;;;;;;;;5054248;28;20044;-69
2021/09/25 07:44:30;;;;;;;18.88;10.07;;;;;;;;;;5082635;28;20043;-69
2021/09/25 07:46:56;;;;;;;18.55;9.80;;;;;;;;;;5069062;28;20072;-69
2021/09/25 07:49:22;;;;;;;16.60;10.48;;;;;;;;;;5081158;28;20036;-68
2021/09/25 07:51:49;;;;;;;19.42;10.23;;;;;;;;;;5068504;28;20503;-69
2021/09/25 07:54:15;;;;;;;20.02;11.30;;;;;;;;;;5078018;28;20088;-69
2021/09/25 07:56:41;;;;;;;21.38;12.13;;;;;;;;;;5070538;28;20039;-69
2021/09/25 07:59:07;;;;;;;18.52;11.13;;;;;;;;;;5076478;28;20050;-70
2021/09/25 08:01:33;;;;;;;18.17;10.90;;;;;;;;;;5066331;28;20044;-69
2021/09/25 08:03:59;;;;;;;21.45;13.00;;;;;;;;;;5070460;28;20036;-69
2021/09/25 08:06:25;;;;;;;25.88;12.55;;;;;;;;;;5069045;28;20092;-70
2021/09/25 08:08:51;;;;;;;22.02;12.77;;;;;;;;;;5074411;28;20040;-69
2021/09/25 08:11:17;;;;;;;22.08;13.73;;;;;;;;;;5074691;28;20403;-69
2021/09/25 08:13:43;;;;;;;22.63;12.48;;;;;;;;;;5070611;28;20174;-69
2021/09/25 08:16:09;;;;;;;22.73;13.32;;;;;;;;;;5071785;28;20041;-69
2021/09/25 08:18:36;;;;;;;22.30;14.10;;;;;;;;;;5063137;28;20037;-69
2021/09/25 08:21:02;;;;;;;23.08;14.52;;;;;;;;;;5069672;28;20133;-69
2021/09/25 08:23:28;;;;;;;27.20;13.90;;;;;;;;;;5063439;28;20049;-70
2021/09/25 08:25:54;;;;;;;24.00;13.88;;;;;;;;;;5074647;28;20036;-70
2021/09/25 08:28:20;;;;;;;26.23;14.07;;;;;;;;;;5074444;28;20185;-70
2021/09/25 08:30:47;;;;;;;25.65;13.93;;;;;;;;;;5058336;28;20484;-70
2021/09/25 08:33:13;;;;;;;29.88;14.73;;;;;;;;;;5045932;28;20045;-70
2021/09/25 08:35:39;;;;;;;29.20;14.98;;;;;;;;;;5073625;28;20040;-70
2021/09/25 08:38:05;;;;;;;23.55;14.10;;;;;;;;;;5066700;28;20036;-70
2021/09/25 08:40:31;;;;;;;33.97;15.75;;;;;;;;;;5067492;28;20039;-70
2021/09/25 08:42:58;;;;;;;26.35;15.05;;;;;;;;;;5050809;28;20385;-70
2021/09/25 08:45:24;;;;;;;26.25;14.23;;;;;;;;;;5069828;28;20052;-70
2021/09/25 08:47:50;;;;;;;30.00;16.70;;;;;;;;;;5068731;28;20413;-70
2021/09/25 08:50:17;;;;;;;29.13;15.90;;;;;;;;;;5076128;28;20040;-70
2021/09/25 08:52:44;;;;;;;27.20;15.82;;;;;;;;;;5073088;28;20115;-70
2021/09/25 08:55:11;;;;;;;24.20;15.50;;;;;;;;;;5069403;28;20183;-70
2021/09/25 08:57:39;;;;;;;29.05;15.48;;;;;;;;;;5071469;28;20045;-70
2021/09/25 09:00:23;;;;;;;26.10;15.85;;;;;;;;;;5067703;28;20404;-70
2021/09/25 09:02:50;;;;;;;24.33;16.50;;;;;;;;;;5073793;28;20139;-70
2021/09/25 09:05:26;;;;;;;23.63;15.40;;;;;;;;;;5068076;28;20469;-70
2021/09/25 09:07:52;;;;;;;28.15;16.13;;;;;;;;;;5074329;28;20084;-70
2021/09/25 09:10:19;;;;;;;25.45;16.35;;;;;;;;;;5076769;28;20105;-70
2021/09/25 09:12:45;;;;;;;30.15;16.20;;;;;;;;;;5081077;28;20044;-70
2021/09/25 09:15:11;;;;;;;32.30;16.83;;;;;;;;;;5070396;28;20040;-70
2021/09/25 09:17:37;;;;;;;28.90;16.48;;;;;;;;;;5075376;28;20105;-69
2021/09/25 09:20:10;;;;;;;25.13;16.42;;;;;;;;;;5066586;28;20400;-70
2021/09/25 09:22:36;;;;;;;30.77;17.25;;;;;;;;;;5073923;28;20447;-70
2021/09/25 09:25:05;;;;;;;27.50;16.55;;;;;;;;;;5068927;28;20138;-70
2021/09/25 09:27:32;;;;;;;31.38;17.55;;;;;;;;;;5069722;28;20084;-70
2021/09/25 09:30:07;;;;;;;30.38;18.13;;;;;;;;;;5068193;28;20037;-70
2021/09/25 09:32:34;;;;;;;30.48;18.70;;;;;;;;;;5085761;28;20048;-70
2021/09/25 09:35:08;;;;;;;34.83;19.02;;;;;;;;;;5068977;28;20044;-70
2021/09/25 09:37:34;;;;;;;35.22;19.42;;;;;;;;;;5076635;28;20036;-70
2021/09/25 09:40:01;;;;;;;30.75;19.15;;;;;;;;;;5080526;28;20043;-70
2021/09/25 09:42:42;;;;;;;29.90;18.17;;;;;;;;;;5071286;28;20040;-70
2021/09/25 09:45:09;;;;;;;34.38;18.55;;;;;;;;;;5054014;28;20048;-70
2021/09/25 09:47:45;;;;;;;31.88;18.67;;;;;;;;;;5075457;28;20048;-70
2021/09/25 09:50:13;;;;;;;30.30;18.27;;;;;;;;;;5067990;28;20040;-69
2021/09/25 09:52:39;;;;;;;32.78;18.20;;;;;;;;;;5073213;28;20072;-69
2021/09/25 09:55:06;;;;;;;26.40;18.33;;;;;;;;;;5074169;28;20051;-70
2021/09/25 09:57:33;;;;;;;33.83;20.08;;;;;;;;;;5071635;28;20052;-70
2021/09/25 10:00:00;;;;;;;36.20;20.77;;;;;;;;;;5083937;28;20451;-70
2021/09/25 10:02:26;;;;;;;33.85;20.40;;;;;;;;;;5069715;28;20072;-69
2021/09/25 10:04:52;;;;;;;32.65;20.92;;;;;;;;;;5071082;28;20123;-69
2021/09/25 10:07:18;;;;;;;29.10;19.63;;;;;;;;;;5071054;28;20040;-69
2021/09/25 10:09:45;;;;;;;31.70;21.08;;;;;;;;;;5070051;28;20082;-69
2021/09/25 10:12:16;;;;;;;33.88;20.17;;;;;;;;;;5065593;28;20511;-69
2021/09/25 10:14:43;;;;;;;36.13;21.50;;;;;;;;;;5082631;28;20135;-69
2021/09/25 10:17:11;;;;;;;33.67;20.48;;;;;;;;;;5056695;28;20497;-70
2021/09/25 10:19:38;;;;;;;32.72;20.90;;;;;;;;;;5070934;28;20033;-70
2021/09/25 10:22:13;;;;;;;33.75;21.23;;;;;;;;;;5064543;28;20120;-70
2021/09/25 10:24:44;;;;;;;36.83;21.98;;;;;;;;;;5071313;28;20330;-70
2021/09/25 10:27:11;;;;;;;39.33;23.08;;;;;;;;;;5068087;28;20036;-70
2021/09/25 10:29:44;;;;;;;35.22;21.83;;;;;;;;;;5070894;28;20082;-70
2021/09/25 10:32:18;;;;;;;32.20;22.90;;;;;;;;;;5063931;28;20108;-70
2021/09/25 10:34:54;;;;;;;31.42;22.40;;;;;;;;;;5072490;28;20052;-70
2021/09/25 10:37:20;;;;;;;33.92;22.98;;;;;;;;;;5068178;28;20079;-70
2021/09/25 10:39:55;;;;;;;30.10;22.90;;;;;;;;;;5069955;28;20500;-70
2021/09/25 10:42:21;;;;;;;36.85;23.83;;;;;;;;;;5073094;28;20481;-70
2021/09/25 10:44:49;;;;;;;31.25;22.08;;;;;;;;;;5073807;28;20044;-70
2021/09/25 10:47:17;;;;;;;29.60;20.98;;;;;;;;;;5072543;28;20271;-70
2021/09/25 10:49:46;;;;;;;33.15;22.27;;;;;;;;;;5069806;28;20051;-70
2021/09/25 10:52:13;;;;;;;32.53;21.65;;;;;;;;;;5077483;28;20040;-70
2021/09/25 10:54:39;;;;;;;31.85;20.15;;;;;;;;;;5077833;28;20044;-70
2021/09/25 10:57:09;;;;;;;30.35;23.08;;;;;;;;;;5071983;28;20044;-70
2021/09/25 10:59:35;;;;;;;29.13;20.17;;;;;;;;;;5066460;28;20049;-70
2021/09/25 11:02:01;;;;;;;31.92;20.60;;;;;;;;;;5079730;28;20082;-70
2021/09/25 11:04:33;;;;;;;29.98;19.88;;;;;;;;;;5064923;28;20480;-70
2021/09/25 11:07:01;;;;;;;28.88;20.83;;;;;;;;;;5070408;28;20509;-70
2021/09/25 11:09:39;;;;;;;32.88;22.52;;;;;;;;;;5068800;28;20638;-70
2021/09/25 11:12:11;;;;;;;30.67;21.90;;;;;;;;;;5076801;28;20040;-70
2021/09/25 11:14:40;;;;;;;35.90;22.33;;;;;;;;;;5066322;28;20040;-70
2021/09/25 11:17:09;;;;;;;29.35;20.98;;;;;;;;;;5070813;28;20127;-70
2021/09/25 11:19:35;;;;;;;33.28;21.80;;;;;;;;;;5055150;28;20131;-70
2021/09/25 11:22:04;;;;;;;28.65;20.58;;;;;;;;;;5071793;28;20496;-70
2021/09/25 11:24:31;;;;;;;29.13;21.88;;;;;;;;;;5069936;28;20037;-70
2021/09/25 11:26:58;;;;;;;32.30;21.10;;;;;;;;;;5071709;28;20037;-70
2021/09/25 11:29:24;;;;;;;30.80;21.13;;;;;;;;;;5064963;28;20036;-70
2021/09/25 11:31:51;;;;;;;28.05;21.10;;;;;;;;;;5074019;28;20457;-70
2021/09/25 11:34:21;;;;;;;27.58;19.88;;;;;;;;;;5069983;28;20036;-70
2021/09/25 11:36:55;;;;;;;31.40;22.08;;;;;;;;;;5069501;28;20055;-70
2021/09/25 11:39:42;;;;;;;30.25;21.52;;;;;;;;;;5070702;28;20040;-70
2021/09/25 11:42:08;;;;;;;24.98;18.60;;;;;;;;;;5069145;28;20036;-70
2021/09/25 11:44:41;;;;;;;30.27;20.38;;;;;;;;;;5068237;28;20560;-70
2021/09/25 11:47:07;;;;;;;26.35;18.58;;;;;;;;;;5070312;28;20053;-70
2021/09/25 11:49:34;;;;;;;27.48;20.67;;;;;;;;;;5067481;28;20041;-70
2021/09/25 11:52:00;;;;;;;24.80;18.95;;;;;;;;;;5071669;28;20036;-70
2021/09/25 11:54:26;;;;;;;28.40;18.88;;;;;;;;;;5066574;28;20040;-71
2021/09/25 11:56:52;;;;;;;25.45;18.83;;;;;;;;;;5062884;28;20047;-71
2021/09/25 11:59:21;;;;;;;29.63;18.90;;;;;;;;;;5077642;28;20109;-71
2021/09/25 12:01:47;;;;;;;25.33;17.58;;;;;;;;;;5065110;28;20044;-71
2021/09/25 12:04:14;;;;;;;22.98;17.25;;;;;;;;;;5069906;28;20556;-71
2021/09/25 12:06:53;;;;;;;27.60;18.58;;;;;;;;;;5065080;28;20036;-70
2021/09/25 12:09:38;;;;;;;27.83;19.13;;;;;;;;;;5078311;28;20043;-70
2021/09/25 12:12:04;;;;;;;23.20;16.95;;;;;;;;;;5071093;28;20453;-70
2021/09/25 12:14:33;;;;;;;23.83;18.00;;;;;;;;;;5071599;28;20072;-70
2021/09/25 12:17:02;;;;;;;23.75;19.27;;;;;;;;;;5062570;28;20048;-70
2021/09/25 12:19:28;;;;;;;24.42;16.80;;;;;;;;;;5073143;28;20098;-70
2021/09/25 12:21:54;;;;;;;21.70;16.85;;;;;;;;;;5063992;28;20263;-70
2021/09/25 12:24:20;;;;;;;23.30;17.65;;;;;;;;;;5073866;28;20052;-70
2021/09/25 12:26:52;;;;;;;26.38;17.45;;;;;;;;;;5055087;28;20080;-70
2021/09/25 12:29:19;;;;;;;22.90;16.52;;;;;;;;;;5074323;28;20052;-70
2021/09/25 12:31:46;;;;;;;27.17;17.55;;;;;;;;;;5076941;28;20466;-70
2021/09/25 12:34:13;;;;;;;23.90;16.88;;;;;;;;;;5074516;28;20040;-70
2021/09/25 12:36:40;;;;;;;25.58;19.10;;;;;;;;;;5069307;28;20043;-70
2021/09/25 12:39:08;;;;;;;26.35;18.02;;;;;;;;;;5088191;28;20094;-70
2021/09/25 12:41:35;;;;;;;22.50;16.90;;;;;;;;;;5052291;28;20052;-70
2021/09/25 12:44:02;;;;;;;25.85;18.90;;;;;;;;;;5070860;28;20485;-70
2021/09/25 12:46:36;;;;;;;28.02;20.27;;;;;;;;;;5072686;28;20423;-70
2021/09/25 12:49:02;;;;;;;27.23;20.98;;;;;;;;;;5080863;28;20128;-71
2021/09/25 12:51:28;;;;;;;29.02;18.55;;;;;;;;;;5080469;28;20052;-71
2021/09/25 12:53:55;;;;;;;26.90;18.67;;;;;;;;;;5067493;28;20759;-70
2021/09/25 12:56:21;;;;;;;24.17;17.83;;;;;;;;;;5068096;28;20037;-70
2021/09/25 12:58:50;;;;;;;24.45;19.23;;;;;;;;;;5078027;28;20032;-71
2021/09/25 13:01:30;;;;;;;24.23;18.20;;;;;;;;;;5082174;28;20254;-71
2021/09/25 13:03:57;;;;;;;24.00;19.40;;;;;;;;;;5073924;28;20071;-70
2021/09/25 13:06:25;;;;;;;23.40;18.15;;;;;;;;;;5072072;28;20068;-70
2021/09/25 13:08:57;;;;;;;27.85;19.02;;;;;;;;;;5080604;28;20070;-71
2021/09/25 13:11:23;;;;;;;25.95;19.48;;;;;;;;;;5075699;28;20072;-71
2021/09/25 13:14:09;;;;;;;26.30;17.73;;;;;;;;;;5066653;28;20102;-70
2021/09/25 13:16:36;;;;;;;26.75;19.65;;;;;;;;;;5076389;28;20119;-70
2021/09/25 13:19:02;;;;;;;26.50;18.65;;;;;;;;;;5060321;28;20094;-70
2021/09/25 13:21:28;;;;;;;23.88;18.92;;;;;;;;;;5073996;28;20068;-70
2021/09/25 13:23:58;;;;;;;23.30;17.88;;;;;;;;;;5068749;28;20095;-70
2021/09/25 13:26:24;;;;;;;24.75;19.17;;;;;;;;;;5079403;28;20396;-70
2021/09/25 13:28:50;;;;;;;24.85;19.60;;;;;;;;;;5067276;28;20141;-70
2021/09/25 13:31:16;;;;;;;25.50;20.92;;;;;;;;;;5075061;28;20040;-70
2021/09/25 13:33:42;;;;;;;20.95;18.65;;;;;;;;;;5071170;28;20041;-70
2021/09/25 13:36:08;;;;;;;24.27;18.92;;;;;;;;;;5072943;28;20138;-70
2021/09/25 13:38:34;;;;;;;26.77;20.80;;;;;;;;;;5075497;28;20040;-70
2021/09/25 13:41:00;;;;;;;31.92;20.95;;;;;;;;;;5065132;28;20037;-70
2021/09/25 13:43:26;;;;;;;25.88;20.50;;;;;;;;;;5076197;28;20137;-70
2021/09/25 13:45:52;;;;;;;31.55;22.95;;;;;;;;;;5064759;28;20048;-70
2021/09/25 13:48:18;;;;;;;27.75;22.50;;;;;;;;;;5078246;28;20036;-70
2021/09/25 13:50:44;;;;;;;29.85;22.48;;;;;;;;;;5066372;28;20036;-70
2021/09/25 13:53:11;;;;;;;25.95;21.20;;;;;;;;;;5073617;28;20049;-70
2021/09/25 13:55:37;;;;;;;27.60;22.05;;;;;;;;;;5065187;28;20431;-70
2021/09/25 13:58:03;;;;;;;30.27;21.73;;;;;;;;;;5078825;28;20043;-70
2021/09/25 14:00:29;;;;;;;28.27;21.27;;;;;;;;;;5069052;28;20514;-71
2021/09/25 14:02:58;;;;;;;31.80;22.38;;;;;;;;;;5080547;28;20081;-71
2021/09/25 14:05:25;;;;;;;30.75;21.95;;;;;;;;;;5066346;28;20049;-71
2021/09/25 14:07:51;;;;;;;26.02;21.65;;;;;;;;;;5070596;28;20051;-71
2021/09/25 14:10:17;;;;;;;26.88;21.75;;;;;;;;;;5067012;28;20497;-70
2021/09/25 14:12:43;;;;;;;30.55;22.63;;;;;;;;;;5072408;28;20054;-70
2021/09/25 14:15:09;;;;;;;28.42;22.90;;;;;;;;;;5069575;28;20035;-70
2021/09/25 14:17:35;;;;;;;26.08;22.35;;;;;;;;;;5067912;28;20118;-70
2021/09/25 14:20:03;;;;;;;29.60;21.67;;;;;;;;;;5056574;28;20040;-70
2021/09/25 14:22:29;;;;;;;23.23;20.80;;;;;;;;;;5066254;28;20540;-71
2021/09/25 14:24:55;;;;;;;24.20;21.67;;;;;;;;;;5053965;28;20366;-70